Time;durP1;ratioP1;P1;durP2;ratioP2;P2;SDS_P1;SDS_P2;PMS_P1;PMS_P2;Temp;Humidity;BMP_temperature;BMP_pressure;BME280_temperature;BME280_humidity;BME280_pressure;Samples;Min_cycle;Max_cycle;Signal;HPM_P1;HPM_P2
2022/11/15 00:01:54;;;;;;;;;;;;;;;-142.75;100.00;77336.09;5027123;28;20272;-66
2022/11/15 00:04:19;;;;;;;;;;;;;;;-142.75;100.00;77314.44;5027089;28;20310;-66
2022/11/15 00:06:44;;;;;;;;;;;;;;;-142.75;100.00;77314.44;5045016;28;20258;-66
2022/11/15 00:09:10;;;;;;;;;;;;;;;-142.75;100.00;77314.44;5045362;28;20198;-66
2022/11/15 00:11:35;;;;;;;;;;;;;;;-142.75;100.00;77310.50;5026636;28;19911;-65
2022/11/15 00:14:02;;;;;;;;;;;;;;;-142.75;100.00;77318.38;5045425;28;19946;-66
2022/11/15 00:16:27;;;;;;;;;;;;;;;-142.75;100.00;77304.59;5026473;28;19912;-66
2022/11/15 00:18:53;;;;;;;;;;;;;;;-142.75;100.00;77302.63;5044660;28;20263;-66
2022/11/15 00:21:18;;;;;;;;;;;;;;;-142.75;100.00;77294.75;5026365;28;19976;-65
2022/11/15 00:23:43;;;;;;;;;;;;;;;-142.75;100.00;77290.81;5045084;28;19923;-65
2022/11/15 00:26:13;;;;;;;;;;;;;;;-142.75;100.00;77284.91;5027795;28;19986;-66
2022/11/15 00:28:38;;;;;;;;;;;;;;;-142.75;100.00;77280.97;5046142;28;19916;-65
2022/11/15 00:31:05;;;;;;;;;;;;;;;-142.75;100.00;77277.03;5045468;28;20213;-66
2022/11/15 00:33:30;;;;;;;;;;;;;;;-142.75;100.00;77273.09;5045148;28;19946;-65
2022/11/15 00:36:00;;;;;;;;;;;;;;;-142.75;100.00;77271.13;5037320;28;20232;-65
2022/11/15 00:38:25;;;;;;;;;;;;;;;-142.75;100.00;77259.31;5026654;28;19916;-65
2022/11/15 00:40:51;;;;;;;;;;;;;;;-142.75;100.00;77253.41;5044906;28;20066;-65
2022/11/15 00:43:17;;;;;;;;;;;;;;;-142.75;100.00;77251.44;5043916;28;19983;-66
2022/11/15 00:45:42;;;;;;;;;;;;;;;-142.75;100.00;77241.59;5044295;28;20236;-65
2022/11/15 00:48:08;;;;;;;;;;;;;;;-142.75;100.00;77235.69;5044274;28;20208;-66
2022/11/15 00:50:33;;;;;;;;;;;;;;;-142.75;100.00;77235.69;5044486;28;20197;-65
2022/11/15 00:52:59;;;;;;;;;;;;;;;-142.75;100.00;77239.63;5044064;28;19977;-65
2022/11/15 00:55:24;;;;;;;;;;;;;;;-142.75;100.00;77239.63;5044005;28;20241;-65
2022/11/15 00:57:49;;;;;;;;;;;;;;;-142.75;100.00;77227.81;5044715;28;20387;-65
2022/11/15 01:00:15;;;;;;;;;;;;;;;-142.75;100.00;77221.91;5044789;28;20266;-65
2022/11/15 01:02:40;;;;;;;;;;;;;;;-142.75;100.00;77227.81;5045111;28;20190;-65
2022/11/15 01:05:06;;;;;;;;;;;;;;;-142.75;100.00;77219.94;5044717;28;20309;-65
2022/11/15 01:07:31;;;;;;;;;;;;;;;-142.75;100.00;77214.03;5044659;28;20271;-65
2022/11/15 01:09:56;;;;;;;;;;;;;;;-142.75;100.00;77202.22;5044984;28;19911;-65
2022/11/15 01:12:22;;;;;;;;;;;;;;;-142.75;100.00;77200.25;5067564;22;19953;-67
2022/11/15 01:14:47;;;;;;;;;;;;;;;-142.75;100.00;77188.44;5026860;28;20374;-67
2022/11/15 01:17:12;;;;;;;;;;;;;;;-142.75;100.00;77194.34;5052996;27;20224;-66
2022/11/15 01:19:38;;;;;;;;;;;;;;;-142.75;100.00;77182.53;5041778;27;20362;-67
2022/11/15 01:22:03;;;;;;;;;;;;;;;-142.75;100.00;77186.47;5055299;27;20208;-67
2022/11/15 01:24:28;;;;;;;;;;;;;;;-142.75;100.00;77176.63;5043446;28;20194;-66
2022/11/15 01:26:54;;;;;;;;;;;;;;;-142.75;100.00;77180.56;5043517;28;20306;-66
2022/11/15 01:29:19;;;;;;;;;;;;;;;-142.75;100.00;77168.75;5043329;28;20428;-66
2022/11/15 01:31:44;;;;;;;;;;;;;;;-142.75;100.00;77158.91;5042664;28;20224;-66
2022/11/15 01:34:09;;;;;;;;;;;;;;;-142.75;100.00;77153.00;5024690;28;20028;-67
2022/11/15 01:36:35;;;;;;;;;;;;;;;-142.75;100.00;77154.97;5044135;28;20216;-66
2022/11/15 01:39:00;;;;;;;;;;;;;;;-142.75;100.00;77141.19;5043193;28;19912;-69
2022/11/15 01:41:27;;;;;;;;;;;;;;;-142.75;100.00;77137.25;5042933;28;20395;-66
2022/11/15 01:43:53;;;;;;;;;;;;;;;-142.75;100.00;77139.22;5044618;28;19922;-67
2022/11/15 01:46:22;;;;;;;;;;;;;;;-142.75;100.00;77131.34;5043453;28;19922;-66
2022/11/15 01:48:49;;;;;;;;;;;;;;;-142.75;100.00;77119.53;5024567;28;19911;-66
2022/11/15 01:51:15;;;;;;;;;;;;;;;-142.75;100.00;77099.84;5043168;28;19912;-67
2022/11/15 01:53:43;;;;;;;;;;;;;;;-142.75;100.00;77101.81;5043670;28;19912;-67
2022/11/15 01:56:10;;;;;;;;;;;;;;;-142.75;100.00;77097.88;5043196;28;19938;-66
2022/11/15 01:58:36;;;;;;;;;;;;;;;-142.75;100.00;77097.88;5024724;28;19967;-67
2022/11/15 02:01:01;;;;;;;;;;;;;;;-142.75;100.00;77090.00;5024126;28;20325;-67
2022/11/15 02:03:33;;;;;;;;;;;;;;;-142.75;100.00;77086.06;5042367;28;20185;-66
2022/11/15 02:05:58;;;;;;;;;;;;;;;-142.75;100.00;77076.22;5042806;28;19919;-66
2022/11/15 02:08:24;;;;;;;;;;;;;;;-142.75;100.00;77068.34;5042435;28;20270;-67
2022/11/15 02:10:49;;;;;;;;;;;;;;;-142.75;100.00;77062.44;5024313;28;20271;-66
2022/11/15 02:13:15;;;;;;;;;;;;;;;-142.75;100.00;77050.63;5042800;28;20210;-66
2022/11/15 02:15:48;;;;;;;;;;;;;;;-142.75;100.00;77046.69;5024091;28;19911;-68
2022/11/15 02:18:16;;;;;;;;;;;;;;;-142.75;100.00;77038.81;5042789;28;20486;-67
2022/11/15 02:20:44;;;;;;;;;;;;;;;-142.75;100.00;77034.88;5042379;28;19988;-68
2022/11/15 02:23:29;;;;;;;;;;;;;;;-142.75;100.00;77019.13;5042092;28;20496;-67
2022/11/15 02:26:01;;;;;;;;;;;;;;;-142.75;100.00;77011.25;5041825;28;20050;-69
2022/11/15 02:28:26;;;;;;;;;;;;;;;-142.75;100.00;77007.31;5042426;28;19911;-68
2022/11/15 02:30:55;;;;;;;;;;;;;;;-142.75;100.00;76995.50;5042471;28;20343;-67
2022/11/15 02:33:41;;;;;;;;;;;;;;;-142.75;100.00;76983.69;5041970;28;19949;-67
2022/11/15 02:36:10;;;;;;;;;;;;;;;-142.75;100.00;76979.75;5003419;28;20674;-67
2022/11/15 02:38:38;;;;;;;;;;;;;;;-142.75;100.00;76979.75;5042432;28;19916;-67
2022/11/15 02:41:30;;;;;;;;;;;;;;;-142.75;100.00;76979.75;5042315;28;19919;-67
2022/11/15 02:44:05;;;;;;;;;;;;;;;-142.75;100.00;76956.13;5002309;28;19919;-67
2022/11/15 02:49:34;;;;;;;;;;;;;;;-142.75;100.00;76938.41;5041869;28;20498;-67
2022/11/15 02:52:00;;;;;;;;;;;;;;;-142.75;100.00;76934.47;5031147;28;19916;-69
2022/11/15 02:54:28;;;;;;;;;;;;;;;-142.75;100.00;76926.59;5023812;28;20076;-68
2022/11/15 02:56:55;;;;;;;;;;;;;;;-142.75;100.00;76914.78;5042353;28;20034;-68
2022/11/15 02:59:21;;;;;;;;;;;;;;;-142.75;100.00;76912.81;5041777;28;19984;-67
2022/11/15 03:02:01;;;;;;;;;;;;;;;-142.75;100.00;76893.13;5042783;28;20310;-67
2022/11/15 03:04:37;;;;;;;;;;;;;;;-142.75;100.00;76906.91;5030900;28;20076;-67
2022/11/15 03:07:11;;;;;;;;;;;;;;;-142.75;100.00;76881.31;5019265;28;19923;-68
2022/11/15 03:09:56;;;;;;;;;;;;;;;-142.75;100.00;76873.44;5023544;28;20517;-66
2022/11/15 03:12:33;;;;;;;;;;;;;;;-142.75;100.00;76857.69;5041422;28;20466;-68
2022/11/15 03:15:06;;;;;;;;;;;;;;;-142.75;100.00;76857.69;5037676;28;19911;-68
2022/11/15 03:17:40;;;;;;;;;;;;;;;-142.75;100.00;76843.91;5023061;28;20034;-68
2022/11/15 03:20:07;;;;;;;;;;;;;;;-142.75;100.00;76849.81;5034597;28;19916;-68
2022/11/15 03:22:35;;;;;;;;;;;;;;;-142.75;100.00;76841.94;5041762;28;19911;-67
2022/11/15 03:25:03;;;;;;;;;;;;;;;-142.75;100.00;76838.00;5028911;28;19919;-67
2022/11/15 03:27:31;;;;;;;;;;;;;;;-142.75;100.00;76836.03;5041498;28;19908;-68
2022/11/15 03:29:59;;;;;;;;;;;;;;;-142.75;100.00;76826.19;5041977;28;19911;-68
2022/11/15 03:32:26;;;;;;;;;;;;;;;-142.75;100.00;76826.19;5023451;28;19908;-68
2022/11/15 03:34:51;;;;;;;;;;;;;;;-142.75;100.00;76818.31;5043335;28;19923;-69
2022/11/15 03:37:20;;;;;;;;;;;;;;;-142.75;100.00;76806.50;5041544;28;19988;-67
2022/11/15 03:39:45;;;;;;;;;;;;;;;-142.75;100.00;76806.50;5041989;28;19920;-67
2022/11/15 03:42:20;;;;;;;;;;;;;;;-142.75;100.00;76806.50;5041361;28;19908;-68
2022/11/15 03:45:13;;;;;;;;;;;;;;;-142.75;100.00;76804.53;5041280;28;20088;-67
2022/11/15 03:47:41;;;;;;;;;;;;;;;-142.75;100.00;76794.69;5041487;28;20436;-68
2022/11/15 03:50:12;;;;;;;;;;;;;;;-142.75;100.00;76798.66;5038913;28;19912;-68
2022/11/15 03:52:39;;;;;;;;;;;;;;;-142.75;100.00;76790.78;5040908;28;19907;-69
2022/11/15 03:55:06;;;;;;;;;;;;;;;-142.75;100.00;76780.94;5040138;28;19938;-68
2022/11/15 03:57:31;;;;;;;;;;;;;;;-142.75;100.00;76786.84;5045192;28;19934;-67
2022/11/15 03:59:56;;;;;;;;;;;;;;;-142.75;100.00;76777.00;5041232;28;20226;-68
2022/11/15 04:02:22;;;;;;;;;;;;;;;-142.75;100.00;76763.22;5044574;28;20272;-68
2022/11/15 04:04:47;;;;;;;;;;;;;;;-142.75;100.00;76757.31;5046407;28;20194;-69
2022/11/15 04:07:12;;;;;;;;;;;;;;;-142.75;100.00;76753.38;5040709;28;20469;-66
2022/11/15 04:10:01;;;;;;;;;;;;;;;-142.75;100.00;76757.31;5041459;28;20270;-67
2022/11/15 04:12:30;;;;;;;;;;;;;;;-142.75;100.00;76747.47;5033016;28;20319;-67
2022/11/15 04:15:07;;;;;;;;;;;;;;;-142.75;100.00;76741.56;5042596;28;19912;-67
2022/11/15 04:17:32;;;;;;;;;;;;;;;-142.75;100.00;76729.75;5040425;28;19911;-67
2022/11/15 04:25:26;;;;;;;;;;;;;;;-142.75;100.00;76708.09;5044402;28;20754;-67
2022/11/15 04:27:51;;;;;;;;;;;;;;;-142.75;100.00;76700.22;5037870;28;19997;-67
2022/11/15 04:30:16;;;;;;;;;;;;;;;-142.75;100.00;76708.09;5041837;28;20225;-67
2022/11/15 04:32:41;;;;;;;;;;;;;;;-142.75;100.00;76715.97;5039825;28;19969;-67
2022/11/15 04:35:07;;;;;;;;;;;;;;;-142.75;100.00;76719.91;5034149;28;20343;-67
2022/11/15 04:37:32;;;;;;;;;;;;;;;-142.75;100.00;76719.91;5025983;28;20247;-66
2022/11/15 04:39:58;;;;;;;;;;;;;;;-142.75;100.00;76710.06;5044168;28;20306;-69
2022/11/15 04:42:23;;;;;;;;;;;;;;;-142.75;100.00;76721.88;5041403;28;20277;-68
2022/11/15 04:44:48;;;;;;;;;;;;;;;-142.75;100.00;76710.06;5046795;28;20217;-70
2022/11/15 04:47:14;;;;;;;;;;;;;;;-142.75;100.00;76704.16;5044893;28;20284;-70
2022/11/15 04:49:39;;;;;;;;;;;;;;;-142.75;100.00;76700.22;5044475;28;20229;-67
2022/11/15 04:52:04;;;;;;;;;;;;;;;-142.75;100.00;76702.19;5045217;28;20189;-68
2022/11/15 04:54:29;;;;;;;;;;;;;;;-142.75;100.00;76694.31;5045118;28;20366;-68
2022/11/15 04:56:55;;;;;;;;;;;;;;;-142.75;100.00;76696.28;5025639;28;20085;-68
2022/11/15 04:59:20;;;;;;;;;;;;;;;-142.75;100.00;76700.22;5046658;28;20069;-68
2022/11/15 05:01:45;;;;;;;;;;;;;;;-142.75;100.00;76700.22;5044582;28;20332;-68
2022/11/15 05:04:20;;;;;;;;;;;;;;;-142.75;100.00;76704.16;5044132;28;20282;-68
2022/11/15 05:06:49;;;;;;;;;;;;;;;-142.75;100.00;76706.13;5041215;28;19938;-67
2022/11/15 05:09:14;;;;;;;;;;;;;;;-142.75;100.00;76692.34;5045260;28;19985;-67
2022/11/15 05:11:40;;;;;;;;;;;;;;;-142.75;100.00;76696.28;5044477;28;20367;-66
2022/11/15 05:14:05;;;;;;;;;;;;;;;-142.75;100.00;76696.28;5046242;28;19912;-66
2022/11/15 05:16:31;;;;;;;;;;;;;;;-142.75;100.00;76698.25;5044253;28;20080;-69
2022/11/15 05:18:56;;;;;;;;;;;;;;;-142.75;100.00;76692.34;5044232;28;20224;-66
2022/11/15 05:21:22;;;;;;;;;;;;;;;-142.75;100.00;76690.38;5044555;28;20216;-67
2022/11/15 05:23:47;;;;;;;;;;;;;;;-142.75;100.00;76684.47;5046044;28;20178;-67
2022/11/15 05:26:14;;;;;;;;;;;;;;;-142.75;100.00;76692.34;5044945;28;19915;-66
2022/11/15 05:28:39;;;;;;;;;;;;;;;-142.75;100.00;76678.56;5044088;28;19916;-66
2022/11/15 05:31:09;;;;;;;;;;;;;;;-142.75;100.00;76682.50;5043948;28;20193;-67
2022/11/15 05:33:38;;;;;;;;;;;;;;;-142.75;100.00;76684.47;5043656;28;19938;-67
2022/11/15 05:36:06;;;;;;;;;;;;;;;-142.75;100.00;76666.75;5043464;28;19938;-67
2022/11/15 05:38:32;;;;;;;;;;;;;;;-142.75;100.00;76678.56;5045495;28;19907;-67
2022/11/15 05:40:59;;;;;;;;;;;;;;;-142.75;100.00;76676.59;5024886;28;19927;-66
2022/11/15 05:43:24;;;;;;;;;;;;;;;-142.75;100.00;76676.59;5043043;28;19908;-66
2022/11/15 05:45:50;;;;;;;;;;;;;;;-142.75;100.00;76676.59;5044874;28;20429;-66
2022/11/15 05:48:16;;;;;;;;;;;;;;;-142.75;100.00;76684.47;5025455;28;20198;-67
2022/11/15 05:50:42;;;;;;;;;;;;;;;-142.75;100.00;76676.59;5043764;28;20217;-67
2022/11/15 05:53:08;;;;;;;;;;;;;;;-142.75;100.00;76694.31;5044520;28;20455;-67
2022/11/15 05:55:33;;;;;;;;;;;;;;;-142.75;100.00;76686.44;5044338;28;20008;-67
2022/11/15 05:57:59;;;;;;;;;;;;;;;-142.75;100.00;76686.44;5045343;28;20295;-66
2022/11/15 06:00:25;;;;;;;;;;;;;;;-142.75;100.00;76700.22;5044920;28;19916;-67
2022/11/15 06:02:50;;;;;;;;;;;;;;;-142.75;100.00;76692.34;5043055;28;20213;-67
2022/11/15 06:05:15;;;;;;;;;;;;;;;-142.75;100.00;76702.19;5043109;28;20189;-67
2022/11/15 06:07:40;;;;;;;;;;;;;;;-142.75;100.00;76696.28;5023811;28;20229;-67
2022/11/15 06:10:06;;;;;;;;;;;;;;;-142.75;100.00;76704.16;5024995;28;20366;-67
2022/11/15 06:12:31;;;;;;;;;;;;;;;-142.75;100.00;76715.97;5027244;28;20247;-65
2022/11/15 06:14:57;;;;;;;;;;;;;;;-142.75;100.00;76719.91;5044496;28;20081;-66
2022/11/15 06:17:22;;;;;;;;;;;;;;;-142.75;100.00;76731.72;5043766;28;20240;-66
2022/11/15 06:19:47;;;;;;;;;;;;;;;-142.75;100.00;76731.72;5024215;28;20233;-68
2022/11/15 06:22:13;;;;;;;;;;;;;;;-142.75;100.00;76727.78;5043429;28;20400;-67
2022/11/15 06:24:38;;;;;;;;;;;;;;;-142.75;100.00;76731.72;5042964;28;20305;-67
2022/11/15 06:27:03;;;;;;;;;;;;;;;-142.75;100.00;76733.69;5043411;28;20310;-67
2022/11/15 06:29:28;;;;;;;;;;;;;;;-142.75;100.00;76745.50;5043641;28;20212;-68
2022/11/15 06:31:54;;;;;;;;;;;;;;;-142.75;100.00;76747.47;5044055;28;19911;-67
2022/11/15 06:34:19;;;;;;;;;;;;;;;-142.75;100.00;76751.41;5044023;28;20392;-67
2022/11/15 06:36:44;;;;;;;;;;;;;;;-142.75;100.00;76767.16;5043340;28;20311;-67
2022/11/15 06:39:10;;;;;;;;;;;;;;;-142.75;100.00;76757.31;5042530;28;20193;-66
2022/11/15 06:41:35;;;;;;;;;;;;;;;-142.75;100.00;76771.09;5023789;28;20240;-66
2022/11/15 06:44:01;;;;;;;;;;;;;;;-142.75;100.00;76771.09;5042412;28;20212;-67
2022/11/15 06:46:26;;;;;;;;;;;;;;;-142.75;100.00;76771.09;5045037;28;20204;-69
2022/11/15 06:48:52;;;;;;;;;;;;;;;-142.75;100.00;76765.19;5043092;28;20344;-69
2022/11/15 06:51:17;;;;;;;;;;;;;;;-142.75;100.00;76777.00;5031674;28;20321;-69
2022/11/15 06:53:42;;;;;;;;;;;;;;;-142.75;100.00;76780.94;5023706;28;20218;-68
2022/11/15 06:56:08;;;;;;;;;;;;;;;-142.75;100.00;76782.91;5044477;28;20244;-69
2022/11/15 06:58:34;;;;;;;;;;;;;;;-142.75;100.00;76777.00;5043155;28;20073;-67
2022/11/15 07:01:07;;;;;;;;;;;;;;;-142.75;100.00;76786.84;5041675;28;20462;-68
2022/11/15 07:03:36;;;;;;;;;;;;;;;-142.75;100.00;76800.63;5041142;28;19945;-69
2022/11/15 07:06:02;;;;;;;;;;;;;;;-142.75;100.00;76786.84;5023762;28;19908;-68
2022/11/15 07:08:28;;;;;;;;;;;;;;;-142.75;100.00;76786.84;5043009;28;20246;-68
2022/11/15 07:10:53;;;;;;;;;;;;;;;-142.75;100.00;76782.91;5042130;28;20019;-68
2022/11/15 07:13:19;;;;;;;;;;;;;;;-142.75;100.00;76777.00;5043906;28;19942;-69
2022/11/15 07:15:44;;;;;;;;;;;;;;;-142.75;100.00;76792.75;5084078;22;20208;-67
2022/11/15 07:18:09;;;;;;;;;;;;;;;-142.75;100.00;76778.97;5029392;28;20240;-66
2022/11/15 07:20:35;;;;;;;;;;;;;;;-142.75;100.00;76773.06;5041779;28;20058;-67
2022/11/15 07:23:01;;;;;;;;;;;;;;;-142.75;100.00;76777.00;5035547;28;20211;-67
2022/11/15 07:25:27;;;;;;;;;;;;;;;-142.75;100.00;76782.91;5057373;28;20038;-67
2022/11/15 07:27:56;;;;;;;;;;;;;;;-142.75;100.00;76771.09;5054991;28;20241;-67
2022/11/15 07:30:21;;;;;;;;;;;;;;;-142.75;100.00;76778.97;5047099;27;20439;-68
2022/11/15 07:32:46;;;;;;;;;;;;;;;-142.75;100.00;76767.16;5056900;27;19922;-67
2022/11/15 07:35:12;;;;;;;;;;;;;;;-142.75;100.00;76759.28;5053578;27;20216;-67
2022/11/15 07:37:37;;;;;;;;;;;;;;;-142.75;100.00;76759.28;5049951;27;20297;-67
2022/11/15 07:40:03;;;;;;;;;;;;;;;-142.75;100.00;76751.41;5036686;27;20212;-67
2022/11/15 07:45:14;;;;;;;;;;;;;;;-142.75;100.00;76784.88;5054289;27;19922;-67
2022/11/15 07:47:39;;;;;;;;;;;;;;;-142.75;100.00;76790.78;5058675;27;20030;-67
2022/11/15 07:50:05;;;;;;;;;;;;;;;-142.75;100.00;76796.69;5061360;27;20243;-68
2022/11/15 07:52:30;;;;;;;;;;;;;;;-142.75;100.00;76786.84;5058775;27;20212;-70
2022/11/15 07:54:55;;;;;;;;;;;;;;;-142.75;100.00;76790.78;5059510;27;20213;-67
2022/11/15 07:57:21;;;;;;;;;;;;;;;-142.75;100.00;76773.06;5055452;27;20237;-68
2022/11/15 07:59:46;;;;;;;;;;;;;;;-142.75;100.00;76763.22;5029037;27;20402;-67
2022/11/15 08:02:11;;;;;;;;;;;;;;;-142.75;100.00;76777.00;5035334;28;20270;-68
2022/11/15 08:04:37;;;;;;;;;;;;;;;-142.75;100.00;76775.03;5062821;27;20126;-67
2022/11/15 08:07:02;;;;;;;;;;;;;;;-142.75;100.00;76778.97;5059398;27;19922;-68
2022/11/15 08:09:27;;;;;;;;;;;;;;;-142.75;100.00;76767.16;5051369;27;20097;-68
2022/11/15 08:11:53;;;;;;;;;;;;;;;-142.75;100.00;76751.41;5050043;27;20112;-67
2022/11/15 08:14:18;;;;;;;;;;;;;;;-142.75;100.00;76723.84;5054101;27;19923;-67
2022/11/15 08:16:43;;;;;;;;;;;;;;;-142.75;100.00;76690.38;5047983;27;20243;-67
2022/11/15 08:19:08;;;;;;;;;;;;;;;-142.75;100.00;76668.72;5042066;27;20189;-69
2022/11/15 08:21:34;;;;;;;;;;;;;;;-142.75;100.00;76656.91;5061808;27;20221;-69
2022/11/15 08:24:00;;;;;;;;;;;;;;;-142.75;100.00;76645.09;5036998;27;19915;-70
2022/11/15 08:26:28;;;;;;;;;;;;;;;-142.75;100.00;76625.41;5027350;28;20293;-69
2022/11/15 08:28:54;;;;;;;;;;;;;;;-142.75;100.00;76617.53;5115254;27;19959;-71
2022/11/15 08:31:19;;;;;;;;;;;;;;;-142.75;100.00;76613.59;5111568;27;20482;-69
2022/11/15 08:33:44;;;;;;;;;;;;;;;-142.75;100.00;76619.50;5088909;27;19912;-70
2022/11/15 08:36:14;;;;;;;;;;;;;;;-142.75;100.00;76633.28;5112516;27;19999;-69
2022/11/15 08:38:39;;;;;;;;;;;;;;;-142.75;100.00;76649.03;5100323;27;20164;-70
2022/11/15 08:41:05;;;;;;;;;;;;;;;-142.75;100.00;76658.88;5112914;27;19923;-70
2022/11/15 08:43:31;;;;;;;;;;;;;;;-142.75;100.00;76652.97;5106209;27;19918;-70
2022/11/15 08:45:56;;;;;;;;;;;;;;;-142.75;100.00;76613.59;5079849;27;20267;-68
2022/11/15 08:48:22;;;;;;;;;;;;;;;-142.75;100.00;76586.03;5049905;27;20220;-69
2022/11/15 08:50:47;;;;;;;;;;;;;;;-142.75;100.00;76584.06;5038058;27;20228;-70
2022/11/15 08:53:13;;;;;;;;;;;;;;;-142.75;100.00;76554.53;5048345;27;20033;-69
2022/11/15 08:55:38;;;;;;;;;;;;;;;-142.75;100.00;76540.75;5059771;27;19922;-69
2022/11/15 08:58:04;;;;;;;;;;;;;;;-142.75;100.00;76513.22;5075906;27;19919;-68
2022/11/15 09:00:29;;;;;;;;;;;;;;;-142.75;100.00;76497.47;5100858;27;19926;-70
2022/11/15 09:02:54;;;;;;;;;;;;;;;-142.75;100.00;76493.53;5106677;27;20001;-70
2022/11/15 09:05:19;;;;;;;;;;;;;;;-142.75;100.00;76528.97;5102338;28;19979;-69
2022/11/15 09:07:45;;;;;;;;;;;;;;;-142.75;100.00;76511.25;5083220;28;19911;-68
2022/11/15 09:10:10;;;;;;;;;;;;;;;-142.75;100.00;76495.50;5107309;27;19918;-69
2022/11/15 09:12:35;;;;;;;;;;;;;;;-142.75;100.00;76448.25;5112241;27;20452;-67
2022/11/15 09:15:00;;;;;;;;;;;;;;;-142.75;100.00;76397.06;5109309;27;20831;-71
2022/11/15 09:17:25;;;;;;;;;;;;;;;-142.75;100.00;76373.44;5106490;27;19918;-68
2022/11/15 09:19:51;;;;;;;;;;;;;;;-142.75;100.00;76399.03;5106122;27;19916;-68
2022/11/15 09:22:16;;;;;;;;;;;;;;;-142.75;100.00;76422.66;5102509;27;19969;-67
2022/11/15 09:24:41;;;;;;;;;;;;;;;-142.75;100.00;76406.91;5080377;27;19945;-69
2022/11/15 09:27:07;;;;;;;;;;;;;;;-142.75;100.00;76418.72;5104029;27;19937;-70
2022/11/15 09:29:32;;;;;;;;;;;;;;;-142.75;100.00;76383.28;5110412;27;20029;-69
2022/11/15 09:31:57;;;;;;;;;;;;;;;-142.75;100.00;76367.53;5114379;27;20022;-69
2022/11/15 09:34:23;;;;;;;;;;;;;;;-142.75;100.00;76357.69;5107991;27;19916;-69
2022/11/15 09:36:48;;;;;;;;;;;;;;;-142.75;100.00;76371.47;5101926;28;19919;-70
2022/11/15 09:39:13;;;;;;;;;;;;;;;-142.75;100.00;76414.78;5083895;28;19911;-68
2022/11/15 09:41:38;;;;;;;;;;;;;;;-142.75;100.00;76367.53;5102425;28;19923;-68
2022/11/15 09:44:03;;;;;;;;;;;;;;;-142.75;100.00;76349.81;5085708;28;19918;-69
2022/11/15 09:46:44;;;;;;;;;;;;;;;-142.75;100.00;76318.34;5111610;27;19916;-69
2022/11/15 09:49:12;;;;;;;;;;;;;;;-142.75;100.00;76377.38;5106857;27;20296;-69
2022/11/15 09:51:48;;;;;;;;;;;;;;;-142.75;100.00;76402.97;5094173;27;19911;-69
2022/11/15 09:54:25;;;;;;;;;;;;;;;-142.75;100.00;76387.22;5099272;27;20362;-69
2022/11/15 09:56:51;;;;;;;;;;;;;;;-142.75;100.00;76379.34;5096660;27;20072;-70
2022/11/15 09:59:19;;;;;;;;;;;;;;;-142.75;100.00;76393.13;5079605;28;20627;-70
2022/11/15 10:01:51;;;;;;;;;;;;;;;-142.75;100.00;76418.72;5095284;28;20365;-68
2022/11/15 10:04:16;;;;;;;;;;;;;;;-142.75;100.00;76446.28;5097320;28;19918;-70
2022/11/15 10:06:49;;;;;;;;;;;;;;;-142.75;100.00;76448.25;5079636;27;19912;-67
2022/11/15 10:09:16;;;;;;;;;;;;;;;-142.75;100.00;76452.19;5087480;28;19919;-69
2022/11/15 10:11:42;;;;;;;;;;;;;;;-142.75;100.00;76452.19;5108043;27;19954;-67
2022/11/15 10:14:20;;;;;;;;;;;;;;;-142.75;100.00;76369.50;5079248;28;20010;-67
2022/11/15 10:17:01;;;;;;;;;;;;;;;-142.75;100.00;76328.19;5101318;28;19911;-67
2022/11/15 10:19:32;;;;;;;;;;;;;;;-142.75;100.00;76328.19;5104344;27;20023;-70
2022/11/15 10:22:16;;;;;;;;;;;;;;;-142.75;100.00;76320.31;5092181;27;19911;-71
2022/11/15 10:24:43;;;;;;;;;;;;;;;-142.75;100.00;76332.13;5122283;27;19935;-71
2022/11/15 10:27:11;;;;;;;;;;;;;;;-142.75;100.00;76282.91;5104449;27;19912;-70
2022/11/15 10:29:36;;;;;;;;;;;;;;;-142.75;100.00;76308.50;5101882;28;20358;-69
2022/11/15 10:32:01;;;;;;;;;;;;;;;-142.75;100.00;76243.53;5101226;28;19937;-67
2022/11/15 10:34:26;;;;;;;;;;;;;;;-142.75;100.00;76243.53;5083246;28;19911;-70
2022/11/15 10:36:56;;;;;;;;;;;;;;;-142.75;100.00;76227.78;5094205;27;19911;-71
2022/11/15 10:39:21;;;;;;;;;;;;;;;-142.75;100.00;76235.66;5110740;27;19911;-69
2022/11/15 10:41:46;;;;;;;;;;;;;;;-142.75;100.00;76251.41;5110885;27;19916;-71
2022/11/15 10:44:20;;;;;;;;;;;;;;;-142.75;100.00;76284.88;5115225;27;20692;-67
2022/11/15 10:47:06;;;;;;;;;;;;;;;-142.75;100.00;76306.53;5101420;27;19980;-69
2022/11/15 10:49:32;;;;;;;;;;;;;;;-142.75;100.00;76340.00;5121197;27;19911;-69
2022/11/15 10:51:57;;;;;;;;;;;;;;;-142.75;100.00;76351.81;5119257;27;19950;-68
2022/11/15 10:54:25;;;;;;;;;;;;;;;-142.75;100.00;76377.38;5112335;27;21100;-67
2022/11/15 10:56:52;;;;;;;;;;;;;;;-142.75;100.00;76379.34;5120657;27;19918;-64
2022/11/15 10:59:23;;;;;;;;;;;;;;;-142.75;100.00;76410.84;5109042;27;20045;-67
2022/11/15 11:01:48;;;;;;;;;;;;;;;-142.75;100.00;76420.69;5102982;28;20426;-70
2022/11/15 11:04:14;;;;;;;;;;;;;;;-142.75;100.00;76363.59;5105556;27;19911;-70
2022/11/15 11:06:50;;;;;;;;;;;;;;;-142.75;100.00;76343.94;5089712;28;19923;-69
2022/11/15 11:09:23;;;;;;;;;;;;;;;-142.75;100.00;76314.41;5094518;28;20416;-70
2022/11/15 11:11:49;;;;;;;;;;;;;;;-142.75;100.00;76330.16;5079250;28;19973;-70
2022/11/15 11:14:23;;;;;;;;;;;;;;;-142.75;100.00;76318.34;5092399;28;19918;-71
2022/11/15 11:16:53;;;;;;;;;;;;;;;-142.75;100.00;76302.59;5091588;28;20632;-71
2022/11/15 11:19:29;;;;;;;;;;;;;;;-142.75;100.00;76304.56;5094240;28;20040;-71
2022/11/15 11:22:03;;;;;;;;;;;;;;;-142.75;100.00;76296.69;5075979;28;20575;-68
2022/11/15 11:24:28;;;;;;;;;;;;;;;-142.75;100.00;76286.84;5075627;28;19919;-71
2022/11/15 11:26:56;;;;;;;;;;;;;;;-142.75;100.00;76314.41;5093332;28;19912;-68
2022/11/15 11:29:35;;;;;;;;;;;;;;;-142.75;100.00;76302.59;5093420;28;20308;-68
2022/11/15 11:32:07;;;;;;;;;;;;;;;-142.75;100.00;76326.22;5092281;28;22952;-67
2022/11/15 11:34:35;;;;;;;;;;;;;;;-142.75;100.00;76336.06;5112357;28;20010;-70
2022/11/15 11:37:00;;;;;;;;;;;;;;;-142.75;100.00;76357.69;5120324;28;19922;-69
2022/11/15 11:39:25;;;;;;;;;;;;;;;-142.75;100.00;76343.94;5103097;28;19911;-69
2022/11/15 11:42:09;;;;;;;;;;;;;;;-142.75;100.00;76341.97;5112478;28;20616;-73
2022/11/15 11:44:34;;;;;;;;;;;;;;;-142.75;100.00;76334.09;5076526;28;19912;-71
2022/11/15 11:47:14;;;;;;;;;;;;;;;-142.75;100.00;76298.66;5097054;28;20404;-71
2022/11/15 11:49:39;;;;;;;;;;;;;;;-142.75;100.00;76277.00;5097959;28;19963;-69
2022/11/15 11:52:24;;;;;;;;;;;;;;;-142.75;100.00;76259.28;5079286;28;20014;-69
2022/11/15 11:54:52;;;;;;;;;;;;;;;-142.75;100.00;76225.81;5076002;28;20426;-70
2022/11/15 11:57:23;;;;;;;;;;;;;;;-142.75;100.00;76188.44;5095875;28;19912;-67
2022/11/15 12:00:12;;;;;;;;;;;;;;;-142.75;100.00;76208.09;5103541;28;19911;-66
2022/11/15 12:02:38;;;;;;;;;;;;;;;-142.75;100.00;76188.44;5099699;28;19912;-68
2022/11/15 12:05:24;;;;;;;;;;;;;;;-142.75;100.00;76194.34;5102405;28;19937;-70
2022/11/15 12:07:53;;;;;;;;;;;;;;;-142.75;100.00;76196.31;5077263;28;20326;-72
2022/11/15 12:10:18;;;;;;;;;;;;;;;-142.75;100.00;76180.56;5120859;28;20753;-70
2022/11/15 12:12:43;;;;;;;;;;;;;;;-142.75;100.00;76168.75;5102734;28;19911;-71
2022/11/15 12:15:08;;;;;;;;;;;;;;;-142.75;100.00;76127.41;5101781;27;19923;-68
2022/11/15 12:17:33;;;;;;;;;;;;;;;-142.75;100.00;76097.88;5123799;27;20868;-70
2022/11/15 12:20:01;;;;;;;;;;;;;;;-142.75;100.00;76095.91;5105943;27;19919;-71
2022/11/15 12:22:42;;;;;;;;;;;;;;;-142.75;100.00;76090.00;5106481;27;19916;-70
2022/11/15 12:25:08;;;;;;;;;;;;;;;-142.75;100.00;76078.19;5109005;27;19911;-70
2022/11/15 12:27:36;;;;;;;;;;;;;;;-142.75;100.00;76091.97;5103471;28;20684;-70
2022/11/15 12:30:04;;;;;;;;;;;;;;;-142.75;100.00;76088.03;5103119;28;20344;-68
2022/11/15 12:32:31;;;;;;;;;;;;;;;-142.75;100.00;76107.72;5103865;28;20311;-70